sensor_id;sensor_type;location;lat;lon;timestamp;pressure;altitude;pressure_sealevel;temperature;humidity
24962;BME280;12992;50.884;13.668;2023-06-19T00:01:12;97031.63;;;15.30;100.00
24962;BME280;12992;50.884;13.668;2023-06-19T00:03:37;97041.25;;;15.27;100.00
24962;BME280;12992;50.884;13.668;2023-06-19T00:06:03;97036.34;;;15.24;100.00
24962;BME280;12992;50.884;13.668;2023-06-19T00:08:28;97037.81;;;15.17;100.00
24962;BME280;12992;50.884;13.668;2023-06-19T00:10:54;97029.41;;;15.08;100.00
24962;BME280;12992;50.884;13.668;2023-06-19T00:13:19;97032.41;;;15.12;100.00
24962;BME280;12992;50.884;13.668;2023-06-19T00:15:45;97031.41;;;15.02;100.00
24962;BME280;12992;50.884;13.668;2023-06-19T00:18:10;97029.22;;;14.99;100.00
24962;BME280;12992;50.884;13.668;2023-06-19T00:20:36;97035.31;;;14.96;100.00
24962;BME280;12992;50.884;13.668;2023-06-19T00:23:01;97028.81;;;14.87;100.00
24962;BME280;12992;50.884;13.668;2023-06-19T00:25:27;97029.13;;;14.86;100.00
24962;BME280;12992;50.884;13.668;2023-06-19T00:27:52;97039.81;;;14.82;100.00
24962;BME280;12992;50.884;13.668;2023-06-19T00:30:17;97041.22;;;14.80;100.00
24962;BME280;12992;50.884;13.668;2023-06-19T00:32:43;97042.03;;;14.80;100.00
24962;BME280;12992;50.884;13.668;2023-06-19T00:35:16;97037.09;;;14.82;100.00
24962;BME280;12992;50.884;13.668;2023-06-19T00:37:43;97039.81;;;14.82;100.00
24962;BME280;12992;50.884;13.668;2023-06-19T00:40:31;97040.09;;;14.86;100.00
24962;BME280;12992;50.884;13.668;2023-06-19T00:42:57;97040.31;;;14.89;100.00
24962;BME280;12992;50.884;13.668;2023-06-19T00:45:23;97043.56;;;14.91;100.00
24962;BME280;12992;50.884;13.668;2023-06-19T00:47:55;97046.84;;;14.93;100.00
24962;BME280;12992;50.884;13.668;2023-06-19T00:50:22;97041.94;;;14.90;100.00
24962;BME280;12992;50.884;13.668;2023-06-19T00:52:47;97029.44;;;14.79;100.00
24962;BME280;12992;50.884;13.668;2023-06-19T00:55:14;97026.53;;;14.70;100.00
24962;BME280;12992;50.884;13.668;2023-06-19T00:57:41;97018.16;;;14.57;100.00
24962;BME280;12992;50.884;13.668;2023-06-19T01:00:07;97016.88;;;14.49;100.00
24962;BME280;12992;50.884;13.668;2023-06-19T01:02:34;97019.09;;;14.42;100.00
24962;BME280;12992;50.884;13.668;2023-06-19T01:05:00;97014.53;;;14.32;100.00
24962;BME280;12992;50.884;13.668;2023-06-19T01:10:40;97024.41;;;14.28;100.00
24962;BME280;12992;50.884;13.668;2023-06-19T01:13:09;97020.06;;;14.22;100.00
24962;BME280;12992;50.884;13.668;2023-06-19T01:15:38;97033.44;;;14.29;100.00
24962;BME280;12992;50.884;13.668;2023-06-19T01:18:04;97034.22;;;14.34;100.00
24962;BME280;12992;50.884;13.668;2023-06-19T01:20:29;97035.25;;;14.38;100.00
24962;BME280;12992;50.884;13.668;2023-06-19T01:22:56;97032.50;;;14.43;100.00
24962;BME280;12992;50.884;13.668;2023-06-19T01:25:24;97045.03;;;14.55;100.00
24962;BME280;12992;50.884;13.668;2023-06-19T01:27:50;97037.59;;;14.60;100.00
24962;BME280;12992;50.884;13.668;2023-06-19T01:30:16;97034.84;;;14.60;100.00
24962;BME280;12992;50.884;13.668;2023-06-19T01:35:17;97044.16;;;14.88;100.00
24962;BME280;12992;50.884;13.668;2023-06-19T01:37:44;97048.31;;;15.10;100.00
24962;BME280;12992;50.884;13.668;2023-06-19T01:40:11;97039.13;;;15.19;100.00
24962;BME280;12992;50.884;13.668;2023-06-19T01:42:38;97040.19;;;15.23;100.00
24962;BME280;12992;50.884;13.668;2023-06-19T01:45:05;97029.44;;;15.27;100.00
24962;BME280;12992;50.884;13.668;2023-06-19T01:47:30;97034.28;;;15.35;100.00
24962;BME280;12992;50.884;13.668;2023-06-19T01:49:56;97042.47;;;15.64;100.00
24962;BME280;12992;50.884;13.668;2023-06-19T01:52:22;97028.81;;;15.78;100.00
24962;BME280;12992;50.884;13.668;2023-06-19T01:54:47;97034.75;;;15.85;100.00
24962;BME280;12992;50.884;13.668;2023-06-19T01:57:14;97031.41;;;15.88;100.00
24962;BME280;12992;50.884;13.668;2023-06-19T01:59:39;97027.84;;;15.88;100.00
24962;BME280;12992;50.884;13.668;2023-06-19T02:02:04;97015.69;;;15.94;100.00
24962;BME280;12992;50.884;13.668;2023-06-19T02:04:31;97016.00;;;15.92;100.00
24962;BME280;12992;50.884;13.668;2023-06-19T02:06:57;97017.09;;;15.91;100.00
24962;BME280;12992;50.884;13.668;2023-06-19T02:09:22;97005.88;;;15.88;100.00
24962;BME280;12992;50.884;13.668;2023-06-19T02:11:47;97016.66;;;15.84;100.00
24962;BME280;12992;50.884;13.668;2023-06-19T02:14:13;97021.09;;;15.80;100.00
24962;BME280;12992;50.884;13.668;2023-06-19T02:16:38;97024.13;;;15.78;100.00
24962;BME280;12992;50.884;13.668;2023-06-19T02:19:07;97020.66;;;15.73;100.00
24962;BME280;12992;50.884;13.668;2023-06-19T02:21:37;97013.00;;;15.70;100.00
24962;BME280;12992;50.884;13.668;2023-06-19T02:24:03;97017.97;;;15.68;100.00
24962;BME280;12992;50.884;13.668;2023-06-19T02:26:29;97018.78;;;15.68;100.00
24962;BME280;12992;50.884;13.668;2023-06-19T02:28:55;97012.78;;;15.66;100.00
24962;BME280;12992;50.884;13.668;2023-06-19T02:31:24;97019.09;;;15.67;100.00
24962;BME280;12992;50.884;13.668;2023-06-19T02:33:50;97018.28;;;15.66;100.00
24962;BME280;12992;50.884;13.668;2023-06-19T02:36:18;97019.41;;;15.65;100.00
24962;BME280;12992;50.884;13.668;2023-06-19T02:38:47;97016.97;;;15.64;100.00
24962;BME280;12992;50.884;13.668;2023-06-19T02:41:14;97015.28;;;15.63;100.00
24962;BME280;12992;50.884;13.668;2023-06-19T02:43:43;97014.78;;;15.61;100.00
24962;BME280;12992;50.884;13.668;2023-06-19T02:46:09;97017.22;;;15.62;100.00
24962;BME280;12992;50.884;13.668;2023-06-19T02:48:35;97008.41;;;15.65;100.00
24962;BME280;12992;50.884;13.668;2023-06-19T02:51:00;97008.63;;;15.69;100.00
24962;BME280;12992;50.884;13.668;2023-06-19T02:53:25;97016.00;;;15.73;100.00
24962;BME280;12992;50.884;13.668;2023-06-19T02:55:51;97016.22;;;15.77;100.00
24962;BME280;12992;50.884;13.668;2023-06-19T02:58:16;97018.88;;;15.82;100.00
24962;BME280;12992;50.884;13.668;2023-06-19T03:00:41;97017.47;;;15.84;100.00
24962;BME280;12992;50.884;13.668;2023-06-19T03:03:07;97014.44;;;15.86;100.00
24962;BME280;12992;50.884;13.668;2023-06-19T03:05:32;97014.63;;;15.90;100.00
24962;BME280;12992;50.884;13.668;2023-06-19T03:07:57;97006.28;;;16.00;100.00
24962;BME280;12992;50.884;13.668;2023-06-19T03:10:24;97011.47;;;16.34;100.00
24962;BME280;12992;50.884;13.668;2023-06-19T03:12:50;97006.56;;;16.63;100.00
24962;BME280;12992;50.884;13.668;2023-06-19T03:15:15;96998.59;;;17.08;100.00
24962;BME280;12992;50.884;13.668;2023-06-19T03:17:44;97004.91;;;17.50;95.21
24962;BME280;12992;50.884;13.668;2023-06-19T03:20:11;97004.25;;;17.80;97.14
24962;BME280;12992;50.884;13.668;2023-06-19T03:22:40;96987.25;;;18.01;93.62
24962;BME280;12992;50.884;13.668;2023-06-19T03:25:08;96992.78;;;18.23;88.29
24962;BME280;12992;50.884;13.668;2023-06-19T03:27:34;96992.47;;;18.47;85.26
24962;BME280;12992;50.884;13.668;2023-06-19T03:29:59;96995.59;;;18.77;82.82
24962;BME280;12992;50.884;13.668;2023-06-19T03:32:34;96979.47;;;19.01;80.31
24962;BME280;12992;50.884;13.668;2023-06-19T03:35:01;96994.69;;;19.38;75.88
24962;BME280;12992;50.884;13.668;2023-06-19T03:37:27;96972.16;;;19.53;75.52
24962;BME280;12992;50.884;13.668;2023-06-19T03:39:52;96966.16;;;19.60;75.08
24962;BME280;12992;50.884;13.668;2023-06-19T03:42:18;96966.19;;;19.69;75.24
24962;BME280;12992;50.884;13.668;2023-06-19T03:44:43;96968.16;;;19.86;73.19
24962;BME280;12992;50.884;13.668;2023-06-19T03:47:09;96957.44;;;20.01;72.07
24962;BME280;12992;50.884;13.668;2023-06-19T03:49:34;96953.03;;;20.09;72.00
24962;BME280;12992;50.884;13.668;2023-06-19T03:52:01;96945.56;;;20.09;72.69
24962;BME280;12992;50.884;13.668;2023-06-19T03:54:26;96939.56;;;20.07;72.00
24962;BME280;12992;50.884;13.668;2023-06-19T03:56:52;96938.88;;;20.11;71.79
24962;BME280;12992;50.884;13.668;2023-06-19T03:59:17;96934.34;;;20.15;72.05
24962;BME280;12992;50.884;13.668;2023-06-19T04:01:43;96938.53;;;20.21;70.86
24962;BME280;12992;50.884;13.668;2023-06-19T04:04:08;96936.91;;;20.20;70.25
24962;BME280;12992;50.884;13.668;2023-06-19T04:06:34;96934.16;;;20.20;71.46
24962;BME280;12992;50.884;13.668;2023-06-19T04:08:59;96929.09;;;20.22;70.95
24962;BME280;12992;50.884;13.668;2023-06-19T04:11:24;96933.50;;;20.23;69.94
24962;BME280;12992;50.884;13.668;2023-06-19T04:13:50;96930.72;;;20.23;70.46
24962;BME280;12992;50.884;13.668;2023-06-19T04:16:15;96927.00;;;20.27;68.97
24962;BME280;12992;50.884;13.668;2023-06-19T04:18:41;96925.84;;;20.37;68.39
24962;BME280;12992;50.884;13.668;2023-06-19T04:21:06;96934.47;;;20.44;68.59
24962;BME280;12992;50.884;13.668;2023-06-19T04:23:32;96928.13;;;20.52;68.50
24962;BME280;12992;50.884;13.668;2023-06-19T04:25:58;96939.97;;;20.61;69.42
24962;BME280;12992;50.884;13.668;2023-06-19T04:28:23;96945.81;;;20.69;67.42
24962;BME280;12992;50.884;13.668;2023-06-19T04:30:48;96949.03;;;20.79;68.83
24962;BME280;12992;50.884;13.668;2023-06-19T04:33:13;96945.09;;;20.80;67.70
24962;BME280;12992;50.884;13.668;2023-06-19T04:35:39;96948.66;;;20.89;67.68
24962;BME280;12992;50.884;13.668;2023-06-19T04:38:07;96954.13;;;21.07;66.49
24962;BME280;12992;50.884;13.668;2023-06-19T04:40:33;96953.06;;;21.20;65.80
24962;BME280;12992;50.884;13.668;2023-06-19T04:43:00;96968.22;;;21.23;69.72
24962;BME280;12992;50.884;13.668;2023-06-19T04:45:25;96964.75;;;21.34;66.66
24962;BME280;12992;50.884;13.668;2023-06-19T04:47:50;96956.78;;;21.33;67.42
24962;BME280;12992;50.884;13.668;2023-06-19T04:50:16;96951.22;;;21.41;66.42
24962;BME280;12992;50.884;13.668;2023-06-19T04:52:41;96948.56;;;21.45;66.79
24962;BME280;12992;50.884;13.668;2023-06-19T04:55:07;96952.31;;;21.49;66.96
24962;BME280;12992;50.884;13.668;2023-06-19T04:57:35;96946.28;;;21.47;67.06
24962;BME280;12992;50.884;13.668;2023-06-19T05:00:05;96956.22;;;21.48;67.57
24962;BME280;12992;50.884;13.668;2023-06-19T05:02:32;96951.50;;;21.48;66.84
24962;BME280;12992;50.884;13.668;2023-06-19T05:04:58;96944.63;;;21.46;66.30
24962;BME280;12992;50.884;13.668;2023-06-19T05:07:30;96951.34;;;21.45;68.65
24962;BME280;12992;50.884;13.668;2023-06-19T05:09:56;96952.47;;;21.44;66.88
24962;BME280;12992;50.884;13.668;2023-06-19T05:12:22;96946.59;;;21.45;66.91
24962;BME280;12992;50.884;13.668;2023-06-19T05:14:47;96939.50;;;21.36;69.14
24962;BME280;12992;50.884;13.668;2023-06-19T05:17:12;96933.94;;;21.36;66.82
24962;BME280;12992;50.884;13.668;2023-06-19T05:19:38;96940.66;;;21.35;66.97
24962;BME280;12992;50.884;13.668;2023-06-19T05:22:03;96937.00;;;21.43;65.70
24962;BME280;12992;50.884;13.668;2023-06-19T05:24:28;96936.06;;;21.39;66.67
24962;BME280;12992;50.884;13.668;2023-06-19T05:26:54;96941.13;;;21.37;67.57
24962;BME280;12992;50.884;13.668;2023-06-19T05:29:19;96936.25;;;21.34;68.08
24962;BME280;12992;50.884;13.668;2023-06-19T05:31:44;96933.00;;;21.32;68.24
24962;BME280;12992;50.884;13.668;2023-06-19T05:34:10;96932.03;;;21.28;68.45
24962;BME280;12992;50.884;13.668;2023-06-19T05:36:35;96940.19;;;21.33;67.74
24962;BME280;12992;50.884;13.668;2023-06-19T05:39:00;96943.06;;;21.36;67.88
24962;BME280;12992;50.884;13.668;2023-06-19T05:41:26;96939.50;;;21.36;67.56
24962;BME280;12992;50.884;13.668;2023-06-19T05:43:51;96946.53;;;21.33;68.46
24962;BME280;12992;50.884;13.668;2023-06-19T05:46:16;96939.50;;;21.36;67.42
24962;BME280;12992;50.884;13.668;2023-06-19T05:48:41;96941.63;;;21.39;66.90
24962;BME280;12992;50.884;13.668;2023-06-19T05:51:07;96943.56;;;21.38;67.29
24962;BME280;12992;50.884;13.668;2023-06-19T05:53:32;96940.81;;;21.38;66.86
24962;BME280;12992;50.884;13.668;2023-06-19T05:55:57;96951.34;;;21.45;66.52
24962;BME280;12992;50.884;13.668;2023-06-19T05:58:23;96948.91;;;21.43;67.35
24962;BME280;12992;50.884;13.668;2023-06-19T06:00:50;96947.28;;;21.42;68.09
24962;BME280;12992;50.884;13.668;2023-06-19T06:03:23;96948.38;;;21.50;67.15
24962;BME280;12992;50.884;13.668;2023-06-19T06:05:49;96953.88;;;21.59;66.93
24962;BME280;12992;50.884;13.668;2023-06-19T06:08:14;96952.72;;;21.60;66.46
24962;BME280;12992;50.884;13.668;2023-06-19T06:10:40;96951.56;;;21.61;65.69
24962;BME280;12992;50.884;13.668;2023-06-19T06:13:05;96956.44;;;21.64;66.28
24962;BME280;12992;50.884;13.668;2023-06-19T06:15:30;96955.63;;;21.63;66.86
24962;BME280;12992;50.884;13.668;2023-06-19T06:17:56;96958.66;;;21.70;66.62
24962;BME280;12992;50.884;13.668;2023-06-19T06:20:21;96955.91;;;21.70;66.89
24962;BME280;12992;50.884;13.668;2023-06-19T06:22:46;96959.81;;;21.69;67.29
24962;BME280;12992;50.884;13.668;2023-06-19T06:25:12;96972.53;;;21.70;70.48
24962;BME280;12992;50.884;13.668;2023-06-19T06:27:37;96957.41;;;21.68;67.65
24962;BME280;12992;50.884;13.668;2023-06-19T06:30:03;96955.78;;;21.67;67.93
24962;BME280;12992;50.884;13.668;2023-06-19T06:32:28;96956.94;;;21.66;67.14
24962;BME280;12992;50.884;13.668;2023-06-19T06:34:56;96959.00;;;21.69;66.33
24962;BME280;12992;50.884;13.668;2023-06-19T06:37:21;96960.69;;;21.61;67.13
24962;BME280;12992;50.884;13.668;2023-06-19T06:39:49;96966.69;;;21.63;67.98
24962;BME280;12992;50.884;13.668;2023-06-19T06:42:15;96974.22;;;21.63;68.24
24962;BME280;12992;50.884;13.668;2023-06-19T06:44:42;96970.44;;;21.67;67.29
24962;BME280;12992;50.884;13.668;2023-06-19T06:47:08;96977.41;;;21.73;67.48
24962;BME280;12992;50.884;13.668;2023-06-19T06:49:33;96982.06;;;21.82;69.80
24962;BME280;12992;50.884;13.668;2023-06-19T06:51:58;96993.38;;;21.97;68.90
24962;BME280;12992;50.884;13.668;2023-06-19T06:54:24;96990.41;;;22.02;67.14
24962;BME280;12992;50.884;13.668;2023-06-19T06:56:49;96992.94;;;22.16;66.88
24962;BME280;12992;50.884;13.668;2023-06-19T06:59:15;96989.22;;;22.12;66.94
24962;BME280;12992;50.884;13.668;2023-06-19T07:01:41;96988.53;;;22.15;68.06
24962;BME280;12992;50.884;13.668;2023-06-19T07:04:07;96994.81;;;22.24;67.31
24962;BME280;12992;50.884;13.668;2023-06-19T07:06:32;96991.63;;;22.34;66.11
24962;BME280;12992;50.884;13.668;2023-06-19T07:08:57;97008.06;;;22.40;68.67
24962;BME280;12992;50.884;13.668;2023-06-19T07:11:22;97010.16;;;22.43;69.33
24962;BME280;12992;50.884;13.668;2023-06-19T07:13:48;97002.44;;;22.48;68.96
24962;BME280;12992;50.884;13.668;2023-06-19T07:16:13;97008.38;;;22.59;68.12
24962;BME280;12992;50.884;13.668;2023-06-19T07:18:39;97012.13;;;22.75;67.59
24962;BME280;12992;50.884;13.668;2023-06-19T07:21:11;97011.72;;;22.85;66.94
24962;BME280;12992;50.884;13.668;2023-06-19T07:23:38;97009.00;;;22.98;67.45
24962;BME280;12992;50.884;13.668;2023-06-19T07:26:03;97018.16;;;23.10;68.14
24962;BME280;12992;50.884;13.668;2023-06-19T07:28:29;97036.69;;;23.18;72.27
24962;BME280;12992;50.884;13.668;2023-06-19T07:30:55;97029.16;;;23.31;70.51
24962;BME280;12992;50.884;13.668;2023-06-19T07:33:20;97007.44;;;23.33;67.33
24962;BME280;12992;50.884;13.668;2023-06-19T07:35:45;97021.78;;;23.48;68.87
24962;BME280;12992;50.884;13.668;2023-06-19T07:38:11;97031.28;;;23.59;70.75
24962;BME280;12992;50.884;13.668;2023-06-19T07:40:36;97022.97;;;23.71;69.27
24962;BME280;12992;50.884;13.668;2023-06-19T07:43:01;97022.03;;;23.79;67.30
24962;BME280;12992;50.884;13.668;2023-06-19T07:45:26;97021.66;;;23.93;66.57
24962;BME280;12992;50.884;13.668;2023-06-19T07:47:56;97024.13;;;23.94;69.89
24962;BME280;12992;50.884;13.668;2023-06-19T07:50:22;97023.09;;;23.87;71.12
24962;BME280;12992;50.884;13.668;2023-06-19T07:52:47;97031.28;;;23.83;74.77
24962;BME280;12992;50.884;13.668;2023-06-19T07:55:12;97036.63;;;23.88;72.00
24962;BME280;12992;50.884;13.668;2023-06-19T07:57:38;97029.56;;;23.91;72.43
24962;BME280;12992;50.884;13.668;2023-06-19T08:00:03;97006.28;;;23.95;66.53
24962;BME280;12992;50.884;13.668;2023-06-19T08:02:37;97037.91;;;24.03;73.78
24962;BME280;12992;50.884;13.668;2023-06-19T08:05:02;97006.94;;;23.92;69.00
24962;BME280;12992;50.884;13.668;2023-06-19T08:07:28;97013.69;;;23.91;70.88
24962;BME280;12992;50.884;13.668;2023-06-19T08:09:53;97026.91;;;23.82;76.61
24962;BME280;12992;50.884;13.668;2023-06-19T08:12:18;97005.94;;;23.72;72.52
24962;BME280;12992;50.884;13.668;2023-06-19T08:14:44;97019.25;;;23.67;76.88
24962;BME280;12992;50.884;13.668;2023-06-19T08:17:09;97033.41;;;23.62;81.60
24962;BME280;12992;50.884;13.668;2023-06-19T08:19:34;96999.69;;;23.51;73.29
24962;BME280;12992;50.884;13.668;2023-06-19T08:22:00;96987.50;;;23.43;69.68
24962;BME280;12992;50.884;13.668;2023-06-19T08:24:25;97013.19;;;23.28;78.87
24962;BME280;12992;50.884;13.668;2023-06-19T08:26:50;96990.94;;;23.04;71.81
24962;BME280;12992;50.884;13.668;2023-06-19T08:29:17;96985.38;;;22.92;74.10
24962;BME280;12992;50.884;13.668;2023-06-19T08:31:43;96993.41;;;22.72;78.70
24962;BME280;12992;50.884;13.668;2023-06-19T08:34:09;96991.00;;;22.50;77.73
24962;BME280;12992;50.884;13.668;2023-06-19T08:36:35;96984.88;;;22.23;81.19
24962;BME280;12992;50.884;13.668;2023-06-19T08:39:00;96983.09;;;21.98;80.27
24962;BME280;12992;50.884;13.668;2023-06-19T08:41:26;96977.47;;;21.86;78.05
24962;BME280;12992;50.884;13.668;2023-06-19T08:43:52;96982.91;;;21.82;80.68
24962;BME280;12992;50.884;13.668;2023-06-19T08:46:18;96982.63;;;21.96;74.59
24962;BME280;12992;50.884;13.668;2023-06-19T08:48:44;96998.16;;;22.18;76.21
24962;BME280;12992;50.884;13.668;2023-06-19T08:51:10;97019.63;;;22.42;77.14
24962;BME280;12992;50.884;13.668;2023-06-19T08:53:43;97026.09;;;22.67;75.83
24962;BME280;12992;50.884;13.668;2023-06-19T08:56:09;97022.84;;;22.85;73.96
24962;BME280;12992;50.884;13.668;2023-06-19T08:58:34;97046.47;;;22.92;81.85
24962;BME280;12992;50.884;13.668;2023-06-19T09:01:00;97048.81;;;23.02;78.69
24962;BME280;12992;50.884;13.668;2023-06-19T09:03:25;97045.59;;;23.12;76.18
24962;BME280;12992;50.884;13.668;2023-06-19T09:05:51;97074.53;;;23.11;89.43
24962;BME280;12992;50.884;13.668;2023-06-19T09:08:19;97068.72;;;23.04;98.05
24962;BME280;12992;50.884;13.668;2023-06-19T09:10:57;97077.53;;;23.06;100.00
24962;BME280;12992;50.884;13.668;2023-06-19T09:13:23;97073.38;;;23.12;100.00
24962;BME280;12992;50.884;13.668;2023-06-19T09:15:57;97064.91;;;23.08;98.64
24962;BME280;12992;50.884;13.668;2023-06-19T09:18:23;97036.19;;;23.04;81.91
24962;BME280;12992;50.884;13.668;2023-06-19T09:20:52;97029.81;;;23.04;81.14
24962;BME280;12992;50.884;13.668;2023-06-19T09:23:19;97037.72;;;23.14;84.04
24962;BME280;12992;50.884;13.668;2023-06-19T09:28:18;97043.34;;;23.51;77.92
24962;BME280;12992;50.884;13.668;2023-06-19T09:31:00;97049.50;;;23.68;79.98
24962;BME280;12992;50.884;13.668;2023-06-19T09:33:30;97074.97;;;23.83;85.81
24962;BME280;12992;50.884;13.668;2023-06-19T09:35:57;97054.13;;;23.89;84.40
24962;BME280;12992;50.884;13.668;2023-06-19T09:38:27;97066.53;;;24.04;89.43
24962;BME280;12992;50.884;13.668;2023-06-19T09:40:53;97078.06;;;24.18;91.88
24962;BME280;12992;50.884;13.668;2023-06-19T09:43:29;97082.97;;;24.33;90.19
24962;BME280;12992;50.884;13.668;2023-06-19T09:45:55;97065.75;;;24.43;84.22
24962;BME280;12992;50.884;13.668;2023-06-19T09:48:28;97080.78;;;24.67;89.19
24962;BME280;12992;50.884;13.668;2023-06-19T09:50:59;97052.28;;;24.85;76.31
24962;BME280;12992;50.884;13.668;2023-06-19T09:53:25;97069.78;;;25.14;79.34
24962;BME280;12992;50.884;13.668;2023-06-19T09:55:51;97063.53;;;25.33;74.57
24962;BME280;12992;50.884;13.668;2023-06-19T09:58:18;97109.19;;;25.72;93.55
24962;BME280;12992;50.884;13.668;2023-06-19T10:00:45;97119.56;;;26.22;99.55
24962;BME280;12992;50.884;13.668;2023-06-19T10:03:12;97118.53;;;27.01;94.86
24962;BME280;12992;50.884;13.668;2023-06-19T10:05:38;97064.19;;;26.98;72.46
24962;BME280;12992;50.884;13.668;2023-06-19T10:08:03;97138.00;;;27.98;85.84
24962;BME280;12992;50.884;13.668;2023-06-19T10:10:30;97069.44;;;28.11;73.36
24962;BME280;12992;50.884;13.668;2023-06-19T10:12:58;97131.22;;;29.04;85.01
24962;BME280;12992;50.884;13.668;2023-06-19T10:15:24;97077.75;;;28.60;73.90
24962;BME280;12992;50.884;13.668;2023-06-19T10:18:03;97074.44;;;28.81;74.82
24962;BME280;12992;50.884;13.668;2023-06-19T10:20:33;97012.63;;;28.10;66.98
24962;BME280;12992;50.884;13.668;2023-06-19T10:23:15;97024.56;;;28.07;65.74
24962;BME280;12992;50.884;13.668;2023-06-19T10:25:49;97061.56;;;28.20;71.99
24962;BME280;12992;50.884;13.668;2023-06-19T10:28:26;97072.88;;;28.27;79.02
24962;BME280;12992;50.884;13.668;2023-06-19T10:33:26;96993.06;;;27.15;64.00
24962;BME280;12992;50.884;13.668;2023-06-19T10:35:51;97045.34;;;27.57;72.17
24962;BME280;12992;50.884;13.668;2023-06-19T10:38:16;97041.34;;;28.07;64.88
24962;BME280;12992;50.884;13.668;2023-06-19T10:40:43;97103.59;;;29.81;68.24
24962;BME280;12992;50.884;13.668;2023-06-19T10:43:09;97090.88;;;30.42;66.83
24962;BME280;12992;50.884;13.668;2023-06-19T10:45:34;97135.22;;;31.57;78.75
24962;BME280;12992;50.884;13.668;2023-06-19T10:48:02;97101.53;;;32.35;62.76
24962;BME280;12992;50.884;13.668;2023-06-19T10:50:28;97079.25;;;32.80;58.12
24962;BME280;12992;50.884;13.668;2023-06-19T10:52:54;97101.09;;;34.16;55.68
24962;BME280;12992;50.884;13.668;2023-06-19T10:55:20;97114.88;;;35.30;56.88
24962;BME280;12992;50.884;13.668;2023-06-19T10:57:47;97128.38;;;36.07;61.48
24962;BME280;12992;50.884;13.668;2023-06-19T11:00:26;97144.31;;;36.48;63.88
24962;BME280;12992;50.884;13.668;2023-06-19T11:02:51;97083.41;;;36.33;51.17
24962;BME280;12992;50.884;13.668;2023-06-19T11:05:19;97101.88;;;36.64;56.03
24962;BME280;12992;50.884;13.668;2023-06-19T11:07:59;97070.47;;;36.31;58.12
24962;BME280;12992;50.884;13.668;2023-06-19T11:10:28;97075.09;;;36.89;54.30
24962;BME280;12992;50.884;13.668;2023-06-19T11:12:58;97096.41;;;37.17;58.73
24962;BME280;12992;50.884;13.668;2023-06-19T11:15:34;97013.66;;;36.58;46.34
24962;BME280;12992;50.884;13.668;2023-06-19T11:18:00;97042.50;;;36.30;49.86
24962;BME280;12992;50.884;13.668;2023-06-19T11:20:26;97036.94;;;36.50;52.04
24962;BME280;12992;50.884;13.668;2023-06-19T11:22:57;97030.22;;;36.40;51.35
24962;BME280;12992;50.884;13.668;2023-06-19T11:25:23;97035.06;;;36.40;54.64
24962;BME280;12992;50.884;13.668;2023-06-19T11:27:48;96985.72;;;36.14;51.43
24962;BME280;12992;50.884;13.668;2023-06-19T11:30:29;96946.06;;;35.40;48.44
24962;BME280;12992;50.884;13.668;2023-06-19T11:32:55;96911.78;;;34.12;46.68
24962;BME280;12992;50.884;13.668;2023-06-19T11:35:21;96922.06;;;33.95;49.64
24962;BME280;12992;50.884;13.668;2023-06-19T11:37:47;96955.16;;;34.32;50.99
24962;BME280;12992;50.884;13.668;2023-06-19T11:40:13;96941.41;;;34.69;49.85
24962;BME280;12992;50.884;13.668;2023-06-19T11:42:48;96945.53;;;35.22;46.66
24962;BME280;12992;50.884;13.668;2023-06-19T11:45:15;96949.50;;;35.28;47.89
24962;BME280;12992;50.884;13.668;2023-06-19T11:47:40;96924.84;;;34.98;46.37
24962;BME280;12992;50.884;13.668;2023-06-19T11:50:06;96886.69;;;34.18;43.67
24962;BME280;12992;50.884;13.668;2023-06-19T11:52:32;96896.31;;;33.86;49.81
24962;BME280;12992;50.884;13.668;2023-06-19T11:54:58;96867.06;;;33.17;48.47
24962;BME280;12992;50.884;13.668;2023-06-19T11:57:23;96869.66;;;32.13;53.46
24962;BME280;12992;50.884;13.668;2023-06-19T11:59:48;96859.72;;;31.80;54.53
24962;BME280;12992;50.884;13.668;2023-06-19T12:02:14;96834.06;;;31.39;49.97
24962;BME280;12992;50.884;13.668;2023-06-19T12:04:39;96855.72;;;30.82;55.07
24962;BME280;12992;50.884;13.668;2023-06-19T12:07:05;96874.66;;;31.20;54.98
24962;BME280;12992;50.884;13.668;2023-06-19T12:09:30;96860.59;;;31.31;51.30
24962;BME280;12992;50.884;13.668;2023-06-19T12:11:57;96843.66;;;31.63;48.82
24962;BME280;12992;50.884;13.668;2023-06-19T12:14:22;96845.16;;;32.03;47.83
24962;BME280;12992;50.884;13.668;2023-06-19T12:16:49;96883.47;;;32.74;50.20
24962;BME280;12992;50.884;13.668;2023-06-19T12:19:15;96883.44;;;32.81;51.34
24962;BME280;12992;50.884;13.668;2023-06-19T12:21:40;96832.22;;;32.20;50.54
24962;BME280;12992;50.884;13.668;2023-06-19T12:24:05;96888.34;;;32.66;60.23
24962;BME280;12992;50.884;13.668;2023-06-19T12:26:31;96879.38;;;32.89;53.41
24962;BME280;12992;50.884;13.668;2023-06-19T12:29:01;96844.34;;;32.03;57.03
24962;BME280;12992;50.884;13.668;2023-06-19T12:31:27;96836.81;;;31.82;52.89
24962;BME280;12992;50.884;13.668;2023-06-19T12:33:52;96795.47;;;31.08;51.05
24962;BME280;12992;50.884;13.668;2023-06-19T12:36:17;96844.91;;;30.91;60.87
24962;BME280;12992;50.884;13.668;2023-06-19T12:38:43;96828.84;;;31.02;54.07
24962;BME280;12992;50.884;13.668;2023-06-19T12:41:09;96826.03;;;31.13;53.91
24962;BME280;12992;50.884;13.668;2023-06-19T12:43:34;96788.59;;;30.34;51.10
24962;BME280;12992;50.884;13.668;2023-06-19T12:46:00;96795.34;;;30.11;52.75
24962;BME280;12992;50.884;13.668;2023-06-19T12:48:26;96850.59;;;29.89;70.52
24962;BME280;12992;50.884;13.668;2023-06-19T12:50:51;96849.66;;;29.60;75.50
24962;BME280;12992;50.884;13.668;2023-06-19T12:53:17;96837.44;;;29.39;67.62
24962;BME280;12992;50.884;13.668;2023-06-19T12:55:42;96828.97;;;29.28;68.44